Time;durP1;ratioP1;P1;durP2;ratioP2;P2;SDS_P1;SDS_P2;PMS_P1;PMS_P2;Temp;Humidity;BMP_temperature;BMP_pressure;BME280_temperature;BME280_humidity;BME280_pressure;Samples;Min_cycle;Max_cycle;Signal;HPM_P1;HPM_P2
2022/04/09 00:00:35;;;;;;;9.53;4.00;;;;;;;;;;2098698;28;20198;-53
2022/04/09 00:01:35;;;;;;;9.23;3.50;;;;;;;;;;2090717;28;20656;-54
2022/04/09 00:02:35;;;;;;;10.20;3.93;;;;;;;;;;2098051;28;20240;-53
2022/04/09 00:03:35;;;;;;;8.60;3.50;;;;;;;;;;2098620;28;20213;-52
2022/04/09 00:04:36;;;;;;;8.17;3.93;;;;;;;;;;2094681;28;20179;-53
2022/04/09 00:05:36;;;;;;;9.43;4.17;;;;;;;;;;2098706;28;20232;-55
2022/04/09 00:06:36;;;;;;;11.43;4.90;;;;;;;;;;2098909;28;20228;-53
2022/04/09 00:07:37;;;;;;;6.73;3.93;;;;;;;;;;2098879;28;20366;-55
2022/04/09 00:08:38;;;;;;;12.47;3.93;;;;;;;;;;2095208;28;20255;-55
2022/04/09 00:09:38;;;;;;;7.17;3.87;;;;;;;;;;2092169;28;20175;-56
2022/04/09 00:10:38;;;;;;;7.87;3.50;;;;;;;;;;2093420;28;20183;-53
2022/04/09 00:11:39;;;;;;;8.03;4.03;;;;;;;;;;2098131;28;20203;-52
2022/04/09 00:12:44;;;;;;;7.97;3.70;;;;;;;;;;2093151;28;20168;-56
2022/04/09 00:13:44;;;;;;;8.43;3.77;;;;;;;;;;2088850;28;20203;-54
2022/04/09 00:14:44;;;;;;;10.43;4.30;;;;;;;;;;2089094;28;20197;-54
2022/04/09 00:15:45;;;;;;;6.47;3.33;;;;;;;;;;2089387;28;20168;-55
2022/04/09 00:16:45;;;;;;;8.50;3.83;;;;;;;;;;2088802;28;20184;-54
2022/04/09 00:17:46;;;;;;;9.33;4.13;;;;;;;;;;2089635;28;20198;-52
2022/04/09 00:18:47;;;;;;;10.80;4.00;;;;;;;;;;2095493;28;20175;-55
2022/04/09 00:19:48;;;;;;;9.97;3.50;;;;;;;;;;2092116;28;20255;-52
2022/04/09 00:20:49;;;;;;;12.20;3.90;;;;;;;;;;2098911;28;20167;-52
2022/04/09 00:21:49;;;;;;;9.50;4.10;;;;;;;;;;2096428;28;20171;-54
2022/04/09 00:22:50;;;;;;;6.90;3.53;;;;;;;;;;2090272;28;20253;-53
2022/04/09 00:23:50;;;;;;;7.30;4.13;;;;;;;;;;2087766;28;20222;-53
2022/04/09 00:24:50;;;;;;;7.27;4.50;;;;;;;;;;2091144;28;20175;-52
2022/04/09 00:25:50;;;;;;;9.17;4.03;;;;;;;;;;2090651;28;20676;-52
2022/04/09 00:26:51;;;;;;;7.70;3.80;;;;;;;;;;2089356;28;20163;-54
2022/04/09 00:27:51;;;;;;;10.13;3.77;;;;;;;;;;2083570;28;20169;-54
2022/04/09 00:28:51;;;;;;;13.63;4.27;;;;;;;;;;2081124;28;20648;-54
2022/04/09 00:29:52;;;;;;;5.20;3.90;;;;;;;;;;2087649;28;20178;-55
2022/04/09 00:30:53;;;;;;;5.20;3.17;;;;;;;;;;2089402;28;20206;-55
2022/04/09 00:31:53;;;;;;;7.27;3.97;;;;;;;;;;2083934;28;20210;-53
2022/04/09 00:32:53;;;;;;;7.13;4.10;;;;;;;;;;2080877;28;20168;-51
2022/04/09 00:33:53;;;;;;;8.00;4.37;;;;;;;;;;2089142;28;20225;-53
2022/04/09 00:34:54;;;;;;;8.73;3.90;;;;;;;;;;2097761;28;20582;-55
2022/04/09 00:35:54;;;;;;;12.30;4.90;;;;;;;;;;2098296;28;20651;-53
2022/04/09 00:36:54;;;;;;;7.40;3.87;;;;;;;;;;2098371;28;20163;-54
2022/04/09 00:37:55;;;;;;;8.97;4.27;;;;;;;;;;2098202;28;20183;-56
2022/04/09 00:38:55;;;;;;;8.33;3.97;;;;;;;;;;2094561;28;20188;-51
2022/04/09 00:39:56;;;;;;;12.03;3.60;;;;;;;;;;2088969;28;20175;-55
2022/04/09 00:40:56;;;;;;;9.33;4.27;;;;;;;;;;2080741;28;20583;-53
2022/04/09 00:41:56;;;;;;;9.97;3.77;;;;;;;;;;2072636;28;20173;-53
2022/04/09 00:42:57;;;;;;;11.43;3.83;;;;;;;;;;2089137;28;20178;-55
2022/04/09 00:43:57;;;;;;;12.57;4.07;;;;;;;;;;2097857;28;20627;-54
2022/04/09 00:44:57;;;;;;;9.27;4.20;;;;;;;;;;2097928;28;20159;-52
2022/04/09 00:45:57;;;;;;;10.83;4.10;;;;;;;;;;2098223;28;20212;-52
2022/04/09 00:46:58;;;;;;;11.03;3.73;;;;;;;;;;2097894;28;20189;-54
2022/04/09 00:47:58;;;;;;;8.07;4.23;;;;;;;;;;2089078;28;20263;-55
2022/04/09 00:48:59;;;;;;;9.13;4.27;;;;;;;;;;2089461;28;20652;-51
2022/04/09 00:49:59;;;;;;;11.97;3.97;;;;;;;;;;2089254;28;20332;-54
2022/04/09 00:50:59;;;;;;;8.00;4.10;;;;;;;;;;2089530;28;20160;-56
2022/04/09 00:52:00;;;;;;;7.00;3.60;;;;;;;;;;2098402;28;20262;-57
2022/04/09 00:53:01;;;;;;;11.20;3.70;;;;;;;;;;2098132;28;20194;-55
2022/04/09 00:54:03;;;;;;;9.87;4.03;;;;;;;;;;2089802;28;20179;-54
2022/04/09 00:55:04;;;;;;;7.37;3.87;;;;;;;;;;2089766;28;20179;-56
2022/04/09 00:56:13;;;;;;;11.87;3.90;;;;;;;;;;2090015;28;20190;-53
2022/04/09 00:57:14;;;;;;;15.23;4.23;;;;;;;;;;2098335;28;20651;-54
2022/04/09 00:58:15;;;;;;;5.77;3.70;;;;;;;;;;2098148;28;20166;-52
2022/04/09 00:59:16;;;;;;;15.37;3.93;;;;;;;;;;2098362;28;20178;-55
2022/04/09 01:00:17;;;;;;;7.93;3.97;;;;;;;;;;2089100;28;20603;-55
2022/04/09 01:01:19;;;;;;;9.30;4.00;;;;;;;;;;2090089;28;20659;-52
2022/04/09 01:02:19;;;;;;;9.93;3.97;;;;;;;;;;2090174;28;20184;-52
2022/04/09 01:03:20;;;;;;;9.17;4.00;;;;;;;;;;2090198;28;20175;-52
2022/04/09 01:04:20;;;;;;;8.80;4.10;;;;;;;;;;2089881;28;20172;-51
2022/04/09 01:05:20;;;;;;;8.20;3.80;;;;;;;;;;2089174;28;20188;-52
2022/04/09 01:06:21;;;;;;;7.80;3.80;;;;;;;;;;2089667;28;20179;-52
2022/04/09 01:07:22;;;;;;;3.93;3.27;;;;;;;;;;2089365;28;20210;-52
2022/04/09 01:08:23;;;;;;;7.87;4.00;;;;;;;;;;2089186;28;20179;-52
2022/04/09 01:09:23;;;;;;;8.53;3.77;;;;;;;;;;2072960;28;20231;-52
2022/04/09 01:10:24;;;;;;;7.73;3.60;;;;;;;;;;2069833;28;20243;-52
2022/04/09 01:11:24;;;;;;;8.70;3.70;;;;;;;;;;2088043;28;20221;-52
2022/04/09 01:12:25;;;;;;;8.40;3.57;;;;;;;;;;2080525;28;20225;-51
2022/04/09 01:13:25;;;;;;;7.17;3.53;;;;;;;;;;2079364;28;20196;-53
2022/04/09 01:14:25;;;;;;;9.33;4.03;;;;;;;;;;2086093;28;20199;-53
2022/04/09 01:15:26;;;;;;;12.33;3.97;;;;;;;;;;2080013;28;20247;-54
2022/04/09 01:16:29;;;;;;;10.93;4.30;;;;;;;;;;2075568;28;20176;-53
2022/04/09 01:17:30;;;;;;;5.87;2.93;;;;;;;;;;2089124;28;20175;-53
2022/04/09 01:18:31;;;;;;;9.53;3.67;;;;;;;;;;2089198;28;20646;-54
2022/04/09 01:19:35;;;;;;;11.07;4.33;;;;;;;;;;2089276;28;20745;-52
2022/04/09 01:20:35;;;;;;;7.50;4.03;;;;;;;;;;2072905;28;20208;-52
2022/04/09 01:21:38;;;;;;;8.80;4.30;;;;;;;;;;2073009;28;20204;-52
2022/04/09 01:22:39;;;;;;;11.20;3.97;;;;;;;;;;2073273;28;20598;-52
2022/04/09 01:23:40;;;;;;;6.00;3.50;;;;;;;;;;2077746;28;20227;-52
2022/04/09 01:24:40;;;;;;;8.67;3.67;;;;;;;;;;2080064;28;20179;-51
2022/04/09 01:25:41;;;;;;;11.30;4.40;;;;;;;;;;2080890;28;20202;-52
2022/04/09 01:26:43;;;;;;;12.00;4.57;;;;;;;;;;2079932;28;20179;-52
2022/04/09 01:27:55;;;;;;;6.97;3.60;;;;;;;;;;2088956;28;20183;-52
2022/04/09 01:28:56;;;;;;;7.83;4.00;;;;;;;;;;2086996;28;20179;-51
2022/04/09 01:29:56;;;;;;;8.83;3.90;;;;;;;;;;2080102;28;20735;-51
2022/04/09 01:30:57;;;;;;;5.23;3.27;;;;;;;;;;2084559;28;20240;-51
2022/04/09 01:31:57;;;;;;;8.13;3.90;;;;;;;;;;2097957;28;20167;-51
2022/04/09 01:32:57;;;;;;;7.80;4.00;;;;;;;;;;2095625;28;20272;-51
2022/04/09 01:33:59;;;;;;;8.67;3.97;;;;;;;;;;2088878;28;20195;-55
2022/04/09 01:35:01;;;;;;;10.97;3.70;;;;;;;;;;2080254;28;20172;-52
2022/04/09 01:36:04;;;;;;;8.70;4.00;;;;;;;;;;2080707;28;20635;-52
2022/04/09 01:37:05;;;;;;;11.27;3.80;;;;;;;;;;2078822;28;20176;-54
2022/04/09 01:38:07;;;;;;;11.90;4.40;;;;;;;;;;2081039;28;20227;-55
2022/04/09 01:39:08;;;;;;;10.90;4.10;;;;;;;;;;2088539;28;20218;-53
2022/04/09 01:40:09;;;;;;;8.17;3.90;;;;;;;;;;2088583;28;20178;-52
2022/04/09 01:41:09;;;;;;;9.07;4.50;;;;;;;;;;2080109;28;20640;-53
2022/04/09 01:42:27;;;;;;;12.13;4.20;;;;;;;;;;2078515;28;20232;-53
2022/04/09 01:43:30;;;;;;;8.63;4.00;;;;;;;;;;2079445;28;20189;-51
2022/04/09 01:44:30;;;;;;;7.60;3.37;;;;;;;;;;2080014;28;20172;-54
2022/04/09 01:45:30;;;;;;;11.33;4.50;;;;;;;;;;2080701;28;20172;-53
2022/04/09 01:46:35;;;;;;;12.23;4.20;;;;;;;;;;2075246;28;20176;-55
2022/04/09 01:47:40;;;;;;;7.20;3.73;;;;;;;;;;2088713;28;20168;-53
2022/04/09 01:48:43;;;;;;;12.77;3.83;;;;;;;;;;2088441;28;20218;-52
2022/04/09 01:49:43;;;;;;;5.30;3.33;;;;;;;;;;2080272;28;20227;-51
2022/04/09 01:50:43;;;;;;;10.63;3.67;;;;;;;;;;2080204;28;20168;-52
2022/04/09 01:51:47;;;;;;;14.40;3.87;;;;;;;;;;2088417;28;20675;-51
2022/04/09 01:52:47;;;;;;;10.47;3.70;;;;;;;;;;2088427;28;20632;-52
2022/04/09 01:53:48;;;;;;;10.13;3.90;;;;;;;;;;2087801;28;20201;-55
2022/04/09 01:54:51;;;;;;;6.27;3.67;;;;;;;;;;2074516;28;20616;-52
2022/04/09 01:55:52;;;;;;;6.83;3.33;;;;;;;;;;2087814;28;20172;-52
2022/04/09 01:56:52;;;;;;;7.67;4.23;;;;;;;;;;2080126;28;20263;-53
2022/04/09 01:57:53;;;;;;;9.97;3.90;;;;;;;;;;2070513;28;20187;-52
2022/04/09 01:58:58;;;;;;;9.57;3.57;;;;;;;;;;2080613;28;20179;-56
2022/04/09 01:59:59;;;;;;;12.43;4.30;;;;;;;;;;2076894;28;20193;-51
2022/04/09 02:01:00;;;;;;;7.93;3.50;;;;;;;;;;2076038;28;20179;-51
2022/04/09 02:02:03;;;;;;;9.73;3.80;;;;;;;;;;2079986;28;20184;-54
2022/04/09 02:03:03;;;;;;;9.93;3.90;;;;;;;;;;2080711;28;20191;-57
2022/04/09 02:04:03;;;;;;;10.73;3.93;;;;;;;;;;2087562;28;20203;-55
2022/04/09 02:05:04;;;;;;;12.57;4.53;;;;;;;;;;2093662;28;20650;-54
2022/04/09 02:06:04;;;;;;;9.53;3.83;;;;;;;;;;2088352;28;20683;-55
2022/04/09 02:07:05;;;;;;;7.13;3.57;;;;;;;;;;2080943;28;20179;-55
2022/04/09 02:08:06;;;;;;;8.47;3.53;;;;;;;;;;2077154;28;20188;-55
2022/04/09 02:09:06;;;;;;;9.43;3.53;;;;;;;;;;2080416;28;20251;-52
2022/04/09 02:10:08;;;;;;;6.83;3.30;;;;;;;;;;2079925;28;20172;-52
2022/04/09 02:11:11;;;;;;;8.97;4.00;;;;;;;;;;2080992;28;20265;-55
2022/04/09 02:12:13;;;;;;;6.47;3.83;;;;;;;;;;2088236;28;20175;-55
2022/04/09 02:13:18;;;;;;;8.33;3.80;;;;;;;;;;2088633;28;20174;-53
2022/04/09 02:14:19;;;;;;;9.60;4.20;;;;;;;;;;2089636;28;20184;-55
2022/04/09 02:15:20;;;;;;;10.97;4.77;;;;;;;;;;2090298;28;20238;-52
2022/04/09 02:16:20;;;;;;;12.13;4.60;;;;;;;;;;2085555;28;20175;-53
2022/04/09 02:17:20;;;;;;;10.10;4.43;;;;;;;;;;2081791;28;20250;-53
2022/04/09 02:18:21;;;;;;;8.73;3.87;;;;;;;;;;2081631;28;20180;-54
2022/04/09 02:19:21;;;;;;;13.77;3.87;;;;;;;;;;2088923;28;20250;-53
2022/04/09 02:20:21;;;;;;;9.77;4.60;;;;;;;;;;2097405;28;20178;-55
2022/04/09 02:21:22;;;;;;;9.17;3.97;;;;;;;;;;2097792;28;20639;-54
2022/04/09 02:22:23;;;;;;;7.73;4.00;;;;;;;;;;2097149;28;20696;-50
2022/04/09 02:23:23;;;;;;;6.40;3.70;;;;;;;;;;2089209;28;20179;-53
2022/04/09 02:24:24;;;;;;;7.50;4.00;;;;;;;;;;2090420;28;20276;-55
2022/04/09 02:25:24;;;;;;;8.43;3.77;;;;;;;;;;2092162;28;20210;-54
2022/04/09 02:26:24;;;;;;;10.70;4.30;;;;;;;;;;2084084;28;20183;-55
2022/04/09 02:27:25;;;;;;;10.70;4.00;;;;;;;;;;2081657;28;20675;-56
2022/04/09 02:28:26;;;;;;;12.97;4.53;;;;;;;;;;2082467;28;20191;-55
2022/04/09 02:29:27;;;;;;;8.13;3.93;;;;;;;;;;2082904;28;20660;-55
2022/04/09 02:30:27;;;;;;;9.67;3.90;;;;;;;;;;2084013;28;20192;-55
2022/04/09 02:31:32;;;;;;;9.67;4.60;;;;;;;;;;2083778;28;20560;-55
2022/04/09 02:32:43;;;;;;;6.33;4.17;;;;;;;;;;2084883;28;20348;-57
2022/04/09 02:33:46;;;;;;;7.03;4.53;;;;;;;;;;2083131;28;20649;-56
2022/04/09 02:34:47;;;;;;;5.33;3.63;;;;;;;;;;2081175;28;20203;-55
2022/04/09 02:35:48;;;;;;;8.90;4.53;;;;;;;;;;2086791;28;20175;-54
2022/04/09 02:36:49;;;;;;;12.23;4.47;;;;;;;;;;2091705;28;20167;-58
2022/04/09 02:37:50;;;;;;;7.20;4.03;;;;;;;;;;2087493;28;20180;-56
2022/04/09 02:38:50;;;;;;;9.40;4.47;;;;;;;;;;2083751;28;20224;-57
2022/04/09 02:39:51;;;;;;;9.47;3.97;;;;;;;;;;2078496;28;20172;-55
2022/04/09 02:40:52;;;;;;;9.43;4.17;;;;;;;;;;2078226;28;20185;-55
2022/04/09 02:41:53;;;;;;;7.67;4.00;;;;;;;;;;2079261;28;20515;-56
2022/04/09 02:42:54;;;;;;;7.93;3.80;;;;;;;;;;2089408;28;20191;-56
2022/04/09 02:43:55;;;;;;;8.43;4.67;;;;;;;;;;2081529;28;20258;-53
2022/04/09 02:44:55;;;;;;;8.00;4.10;;;;;;;;;;2080311;28;20215;-56
2022/04/09 02:45:57;;;;;;;6.10;3.40;;;;;;;;;;2078255;28;20195;-55
2022/04/09 02:46:57;;;;;;;8.37;3.83;;;;;;;;;;2092014;28;20254;-56
2022/04/09 02:47:57;;;;;;;9.03;4.43;;;;;;;;;;2088370;28;20183;-57
2022/04/09 02:49:02;;;;;;;13.53;4.57;;;;;;;;;;2092125;28;20174;-55
2022/04/09 02:50:03;;;;;;;7.87;4.13;;;;;;;;;;2084303;28;20191;-55
2022/04/09 02:51:04;;;;;;;7.17;3.97;;;;;;;;;;2083977;28;20165;-55
2022/04/09 02:52:07;;;;;;;8.93;3.70;;;;;;;;;;2083866;28;20177;-55
2022/04/09 02:53:09;;;;;;;10.50;4.20;;;;;;;;;;2080578;28;20177;-57
2022/04/09 02:54:15;;;;;;;7.83;4.03;;;;;;;;;;2081135;28;20215;-55
2022/04/09 02:55:16;;;;;;;7.33;4.37;;;;;;;;;;2084741;28;20179;-54
2022/04/09 02:56:17;;;;;;;12.37;3.90;;;;;;;;;;2084089;28;20161;-54
2022/04/09 02:57:18;;;;;;;7.67;4.47;;;;;;;;;;2091705;28;20184;-58
2022/04/09 02:58:18;;;;;;;12.03;4.17;;;;;;;;;;2087411;28;20169;-55
2022/04/09 02:59:21;;;;;;;8.47;3.60;;;;;;;;;;2091315;28;20183;-56
2022/04/09 03:00:22;;;;;;;7.03;3.77;;;;;;;;;;2084055;28;20212;-57
2022/04/09 03:01:25;;;;;;;9.03;3.70;;;;;;;;;;2083263;28;20774;-58
2022/04/09 03:02:26;;;;;;;4.70;3.40;;;;;;;;;;2084008;28;20199;-56
2022/04/09 03:03:27;;;;;;;10.63;3.77;;;;;;;;;;2083609;28;20194;-54
2022/04/09 03:04:27;;;;;;;10.20;4.40;;;;;;;;;;2091062;28;20238;-55
2022/04/09 03:05:28;;;;;;;10.00;4.23;;;;;;;;;;2083969;28;20671;-53
2022/04/09 03:06:28;;;;;;;6.63;3.93;;;;;;;;;;2091326;28;20270;-56
2022/04/09 03:07:29;;;;;;;9.77;4.17;;;;;;;;;;2101451;28;20190;-54
2022/04/09 03:08:29;;;;;;;5.33;3.20;;;;;;;;;;2093521;28;20181;-56
2022/04/09 03:09:29;;;;;;;6.43;3.47;;;;;;;;;;2100676;28;20216;-56
2022/04/09 03:10:29;;;;;;;7.53;4.10;;;;;;;;;;2101021;28;20178;-55
2022/04/09 03:11:30;;;;;;;12.23;3.83;;;;;;;;;;2091701;28;20210;-54
2022/04/09 03:12:30;;;;;;;10.87;4.10;;;;;;;;;;2091746;28;20206;-56
2022/04/09 03:13:30;;;;;;;8.40;3.40;;;;;;;;;;2092059;28;20680;-57
2022/04/09 03:14:31;;;;;;;7.07;3.73;;;;;;;;;;2082335;28;20253;-52
2022/04/09 03:15:31;;;;;;;12.33;3.93;;;;;;;;;;2091345;28;20234;-53
2022/04/09 03:16:32;;;;;;;7.97;3.77;;;;;;;;;;2091588;28;20171;-56
2022/04/09 03:17:33;;;;;;;10.73;4.20;;;;;;;;;;2082767;28;20259;-54
2022/04/09 03:18:34;;;;;;;7.47;3.50;;;;;;;;;;2091424;28;20168;-55
2022/04/09 03:19:34;;;;;;;8.23;4.10;;;;;;;;;;2091163;28;20179;-57
2022/04/09 03:20:34;;;;;;;8.53;3.23;;;;;;;;;;2081284;28;20176;-56
2022/04/09 03:21:35;;;;;;;8.10;4.40;;;;;;;;;;2078464;28;20282;-56
2022/04/09 03:22:35;;;;;;;9.80;3.50;;;;;;;;;;2082435;28;20211;-56
2022/04/09 03:23:36;;;;;;;5.30;3.27;;;;;;;;;;2082024;28;20214;-56
2022/04/09 03:24:36;;;;;;;9.07;4.03;;;;;;;;;;2081565;28;20181;-55
2022/04/09 03:25:37;;;;;;;9.27;4.60;;;;;;;;;;2090384;28;20262;-55
2022/04/09 03:26:38;;;;;;;8.90;4.20;;;;;;;;;;2082140;28;20245;-55
2022/04/09 03:27:38;;;;;;;8.97;3.97;;;;;;;;;;2089398;28;20207;-56
2022/04/09 03:28:39;;;;;;;4.63;3.70;;;;;;;;;;2091050;28;20186;-55
2022/04/09 03:29:39;;;;;;;7.03;4.03;;;;;;;;;;2085978;28;20172;-56
2022/04/09 03:30:41;;;;;;;8.80;4.20;;;;;;;;;;2073692;28;20172;-54
2022/04/09 03:31:42;;;;;;;6.70;3.83;;;;;;;;;;2076152;28;20216;-57
2022/04/09 03:32:45;;;;;;;9.30;3.40;;;;;;;;;;2090377;28;20180;-55
2022/04/09 03:33:52;;;;;;;7.07;4.00;;;;;;;;;;2089957;28;20183;-55
2022/04/09 03:34:54;;;;;;;10.93;4.03;;;;;;;;;;2082322;28;20182;-54
2022/04/09 03:35:58;;;;;;;7.87;3.63;;;;;;;;;;2082156;28;20175;-55
2022/04/09 03:37:02;;;;;;;8.30;3.83;;;;;;;;;;2087555;28;20183;-55
2022/04/09 03:38:04;;;;;;;7.47;3.60;;;;;;;;;;2077496;28;20173;-54
2022/04/09 03:39:35;;;;;;;9.10;3.60;;;;;;;;;;2087074;28;20651;-53
2022/04/09 03:40:35;;;;;;;8.13;3.83;;;;;;;;;;2096735;28;20179;-54
2022/04/09 03:41:36;;;;;;;9.33;3.53;;;;;;;;;;2088991;28;20198;-54
2022/04/09 03:42:39;;;;;;;8.03;3.47;;;;;;;;;;2075853;28;20180;-54
2022/04/09 03:43:39;;;;;;;8.00;3.80;;;;;;;;;;2082027;28;20315;-53
2022/04/09 03:44:40;;;;;;;8.63;4.20;;;;;;;;;;2088188;28;20771;-53
2022/04/09 03:45:40;;;;;;;5.83;3.70;;;;;;;;;;2080212;28;20176;-51
2022/04/09 03:46:41;;;;;;;8.97;4.23;;;;;;;;;;2081567;28;20255;-52
2022/04/09 03:47:46;;;;;;;12.97;4.50;;;;;;;;;;2080180;28;20189;-54
2022/04/09 03:48:50;;;;;;;8.17;3.33;;;;;;;;;;2085794;28;20187;-53
2022/04/09 03:49:50;;;;;;;7.33;3.93;;;;;;;;;;2089383;28;20863;-53
2022/04/09 03:50:52;;;;;;;5.67;3.67;;;;;;;;;;2089039;28;20172;-55
2022/04/09 03:51:54;;;;;;;10.53;4.23;;;;;;;;;;2081281;28;20204;-52
2022/04/09 03:52:57;;;;;;;8.47;3.90;;;;;;;;;;2081341;28;20176;-55
2022/04/09 03:53:57;;;;;;;6.87;3.53;;;;;;;;;;2075671;28;20196;-55
2022/04/09 03:55:00;;;;;;;7.27;3.30;;;;;;;;;;2077666;28;20169;-52
2022/04/09 03:56:01;;;;;;;8.53;3.77;;;;;;;;;;2077531;28;20172;-55
2022/04/09 03:57:03;;;;;;;4.07;3.57;;;;;;;;;;2087847;28;20176;-52
2022/04/09 03:58:16;;;;;;;10.63;4.00;;;;;;;;;;2087384;28;20178;-53
2022/04/09 03:59:17;;;;;;;7.97;3.43;;;;;;;;;;2081540;28;20180;-52
2022/04/09 04:00:21;;;;;;;7.20;3.60;;;;;;;;;;2072997;28;20173;-55
2022/04/09 04:01:24;;;;;;;7.70;3.73;;;;;;;;;;2072091;28;20176;-56
2022/04/09 04:02:26;;;;;;;8.63;3.73;;;;;;;;;;2078874;28;20183;-53
2022/04/09 04:03:28;;;;;;;8.40;4.43;;;;;;;;;;2080828;28;20290;-54
2022/04/09 04:04:30;;;;;;;9.00;3.53;;;;;;;;;;2080189;28;21076;-54
2022/04/09 04:05:32;;;;;;;8.13;4.27;;;;;;;;;;2081168;28;20267;-57
2022/04/09 04:06:34;;;;;;;11.00;4.40;;;;;;;;;;2080862;28;20180;-56
2022/04/09 04:07:42;;;;;;;7.97;3.80;;;;;;;;;;2076822;28;20187;-52
2022/04/09 04:08:43;;;;;;;6.80;3.90;;;;;;;;;;2076518;28;20186;-53
2022/04/09 04:09:47;;;;;;;8.83;3.90;;;;;;;;;;2076576;28;20176;-53
2022/04/09 04:10:48;;;;;;;6.37;3.37;;;;;;;;;;2079096;28;20263;-52
2022/04/09 04:12:08;;;;;;;7.77;4.13;;;;;;;;;;2080355;28;20680;-54
2022/04/09 04:13:08;;;;;;;8.17;4.17;;;;;;;;;;2080710;28;20761;-55
2022/04/09 04:14:11;;;;;;;9.90;4.63;;;;;;;;;;2089432;28;20176;-53
2022/04/09 04:15:13;;;;;;;8.20;4.27;;;;;;;;;;2086800;28;20159;-53
2022/04/09 04:16:14;;;;;;;7.33;3.70;;;;;;;;;;2086831;28;20168;-54
2022/04/09 04:17:17;;;;;;;8.00;4.07;;;;;;;;;;2080255;28;20255;-55
2022/04/09 04:18:18;;;;;;;8.40;3.97;;;;;;;;;;2081106;28;20788;-55
2022/04/09 04:19:22;;;;;;;9.70;4.77;;;;;;;;;;2081699;28;20172;-52
2022/04/09 04:20:25;;;;;;;6.90;3.60;;;;;;;;;;2081586;28;20557;-53
2022/04/09 04:21:28;;;;;;;9.30;4.10;;;;;;;;;;2080975;28;20207;-55
2022/04/09 04:22:36;;;;;;;8.53;4.50;;;;;;;;;;2081481;28;20624;-54
2022/04/09 04:23:36;;;;;;;6.30;3.67;;;;;;;;;;2101112;23;20215;-56
2022/04/09 04:24:46;;;;;;;9.33;4.43;;;;;;;;;;2076215;28;20188;-57
2022/04/09 04:25:46;;;;;;;11.20;4.10;;;;;;;;;;2080509;28;20176;-55
2022/04/09 04:26:46;;;;;;;8.00;4.33;;;;;;;;;;2078035;28;20207;-57
2022/04/09 04:27:54;;;;;;;8.03;3.87;;;;;;;;;;2074459;28;20165;-55
2022/04/09 04:28:57;;;;;;;10.47;4.27;;;;;;;;;;2067548;28;20177;-58
2022/04/09 04:30:02;;;;;;;6.63;3.93;;;;;;;;;;2078149;28;20195;-56
2022/04/09 04:31:06;;;;;;;5.07;3.63;;;;;;;;;;2080590;28;20676;-55
2022/04/09 04:32:07;;;;;;;8.57;4.90;;;;;;;;;;2069663;28;20585;-57
2022/04/09 04:33:07;;;;;;;12.33;4.80;;;;;;;;;;2068151;28;20181;-58
2022/04/09 04:34:19;;;;;;;8.63;3.43;;;;;;;;;;2074118;28;20201;-55
2022/04/09 04:35:20;;;;;;;8.83;3.57;;;;;;;;;;2081154;28;20570;-57
2022/04/09 04:36:22;;;;;;;8.83;3.70;;;;;;;;;;2081501;28;20204;-56
2022/04/09 04:37:22;;;;;;;6.50;4.20;;;;;;;;;;2070645;28;20609;-56
2022/04/09 04:38:24;;;;;;;6.93;4.63;;;;;;;;;;2072632;28;20173;-56
2022/04/09 04:39:25;;;;;;;7.47;3.97;;;;;;;;;;2081257;28;20179;-55
2022/04/09 04:40:27;;;;;;;6.10;3.87;;;;;;;;;;2075785;28;20188;-57
2022/04/09 04:41:32;;;;;;;9.03;3.93;;;;;;;;;;2082432;28;20207;-58
2022/04/09 04:42:33;;;;;;;7.27;3.93;;;;;;;;;;2081443;28;20176;-58
2022/04/09 04:43:35;;;;;;;7.87;3.67;;;;;;;;;;2089528;28;20183;-57
2022/04/09 04:44:37;;;;;;;5.87;3.97;;;;;;;;;;2088748;28;20648;-57
2022/04/09 04:45:39;;;;;;;7.03;3.70;;;;;;;;;;2081812;28;20184;-59
2022/04/09 04:46:44;;;;;;;9.43;4.40;;;;;;;;;;2077610;28;20167;-56
2022/04/09 04:47:49;;;;;;;7.40;3.53;;;;;;;;;;2079303;28;20629;-57
2022/04/09 04:48:54;;;;;;;11.00;3.70;;;;;;;;;;2070817;28;20252;-56
2022/04/09 04:49:57;;;;;;;7.90;4.07;;;;;;;;;;2072071;28;20183;-57
2022/04/09 04:50:57;;;;;;;10.87;3.53;;;;;;;;;;2078084;28;20195;-57
2022/04/09 04:52:01;;;;;;;10.83;4.17;;;;;;;;;;2081101;28;20306;-57
2022/04/09 04:53:04;;;;;;;7.33;3.40;;;;;;;;;;2072802;28;20188;-56
2022/04/09 04:54:09;;;;;;;8.80;4.10;;;;;;;;;;2078392;28;20188;-58
2022/04/09 04:55:12;;;;;;;7.03;3.57;;;;;;;;;;2081621;28;20184;-57
2022/04/09 04:56:15;;;;;;;5.43;3.03;;;;;;;;;;2081611;28;20202;-57
2022/04/09 04:57:23;;;;;;;8.17;3.03;;;;;;;;;;2088428;28;20258;-57
2022/04/09 04:58:23;;;;;;;8.90;3.57;;;;;;;;;;2072365;28;20177;-56
2022/04/09 04:59:34;;;;;;;7.10;3.50;;;;;;;;;;2082868;28;20321;-57
2022/04/09 05:00:35;;;;;;;5.70;3.17;;;;;;;;;;2081146;28;20616;-57
2022/04/09 05:01:40;;;;;;;7.40;3.63;;;;;;;;;;2065697;28;20180;-58
2022/04/09 05:02:41;;;;;;;9.03;3.53;;;;;;;;;;2073565;28;20212;-56
2022/04/09 05:03:41;;;;;;;8.40;3.60;;;;;;;;;;2072873;28;20604;-57
2022/04/09 05:05:04;;;;;;;8.47;4.13;;;;;;;;;;2069896;28;20193;-55
2022/04/09 05:06:05;;;;;;;12.60;3.63;;;;;;;;;;2071618;28;20696;-58
2022/04/09 05:07:07;;;;;;;9.67;3.77;;;;;;;;;;2080784;28;20168;-57
2022/04/09 05:08:09;;;;;;;8.30;4.03;;;;;;;;;;2076257;28;20626;-58
2022/04/09 05:09:09;;;;;;;6.33;3.20;;;;;;;;;;2074515;28;20960;-56
2022/04/09 05:10:16;;;;;;;6.93;3.53;;;;;;;;;;2081362;28;20173;-61
2022/04/09 05:11:17;;;;;;;5.83;3.40;;;;;;;;;;2078733;28;20675;-55
2022/04/09 05:12:18;;;;;;;8.17;2.93;;;;;;;;;;2071541;28;20216;-58
2022/04/09 05:13:18;;;;;;;10.80;4.03;;;;;;;;;;2071922;28;20181;-54
2022/04/09 05:14:18;;;;;;;8.17;3.87;;;;;;;;;;2072056;28;20201;-59
2022/04/09 05:15:23;;;;;;;6.60;3.33;;;;;;;;;;2072944;28;20177;-57
2022/04/09 05:16:25;;;;;;;6.77;3.67;;;;;;;;;;2080252;28;20172;-57
2022/04/09 05:17:33;;;;;;;10.33;3.30;;;;;;;;;;2080607;28;20665;-57
2022/04/09 05:18:34;;;;;;;5.57;3.17;;;;;;;;;;2080560;28;20256;-56
2022/04/09 05:19:34;;;;;;;11.10;3.70;;;;;;;;;;2074408;28;20204;-59
2022/04/09 05:20:40;;;;;;;3.37;2.67;;;;;;;;;;2065829;28;20220;-59
2022/04/09 05:21:47;;;;;;;4.17;3.07;;;;;;;;;;2080009;28;20180;-58
2022/04/09 05:22:48;;;;;;;3.37;3.00;;;;;;;;;;2073985;28;20181;-57
2022/04/09 05:23:49;;;;;;;7.43;3.10;;;;;;;;;;2063865;28;20174;-57
2022/04/09 05:24:51;;;;;;;9.87;3.30;;;;;;;;;;2063590;28;20200;-57
2022/04/09 05:25:51;;;;;;;5.03;2.77;;;;;;;;;;2075393;28;20271;-56
2022/04/09 05:26:52;;;;;;;3.30;2.47;;;;;;;;;;2081286;28;20227;-57
2022/04/09 05:27:55;;;;;;;4.73;3.13;;;;;;;;;;2075834;28;21473;-56
2022/04/09 05:29:05;;;;;;;2.67;2.30;;;;;;;;;;2076488;28;20678;-57
2022/04/09 05:30:06;;;;;;;9.20;3.47;;;;;;;;;;2072544;28;20275;-56
2022/04/09 05:31:11;;;;;;;6.10;2.80;;;;;;;;;;2073847;28;20219;-56
2022/04/09 05:32:13;;;;;;;4.00;2.77;;;;;;;;;;2074044;28;20617;-55
2022/04/09 05:33:14;;;;;;;7.03;3.27;;;;;;;;;;2081141;28;20244;-55
2022/04/09 05:34:19;;;;;;;5.53;2.93;;;;;;;;;;2081166;28;20196;-57
2022/04/09 05:35:20;;;;;;;7.07;3.40;;;;;;;;;;2079065;28;20289;-56
2022/04/09 05:36:25;;;;;;;9.83;3.53;;;;;;;;;;2082879;28;20252;-57
2022/04/09 05:37:29;;;;;;;7.57;3.30;;;;;;;;;;2086118;28;20175;-55
2022/04/09 05:38:30;;;;;;;8.63;3.40;;;;;;;;;;2080969;28;20652;-55
2022/04/09 05:39:33;;;;;;;7.50;2.70;;;;;;;;;;2089448;28;20175;-58
2022/04/09 05:40:36;;;;;;;5.77;3.10;;;;;;;;;;2072549;28;20645;-57
2022/04/09 05:41:44;;;;;;;7.50;3.20;;;;;;;;;;2073752;28;20629;-57
2022/04/09 05:42:44;;;;;;;3.80;3.40;;;;;;;;;;2073020;28;20264;-55
2022/04/09 05:43:47;;;;;;;2.93;2.20;;;;;;;;;;2081630;28;20180;-59
2022/04/09 05:44:50;;;;;;;5.60;3.27;;;;;;;;;;2068239;28;20737;-55
2022/04/09 05:45:51;;;;;;;5.33;3.10;;;;;;;;;;2073203;28;20184;-55
2022/04/09 05:46:59;;;;;;;6.63;2.80;;;;;;;;;;2080727;28;20172;-55
2022/04/09 05:47:59;;;;;;;4.83;3.07;;;;;;;;;;2079688;28;20180;-57
2022/04/09 05:49:11;;;;;;;8.67;4.20;;;;;;;;;;2087668;28;20263;-56
2022/04/09 05:50:14;;;;;;;5.43;2.93;;;;;;;;;;2087565;28;20188;-60
2022/04/09 05:51:16;;;;;;;6.47;3.57;;;;;;;;;;2080585;28;20176;-56
2022/04/09 05:52:20;;;;;;;6.60;3.33;;;;;;;;;;2071254;28;20169;-56
2022/04/09 05:53:21;;;;;;;5.70;2.87;;;;;;;;;;2080446;28;20198;-54
2022/04/09 05:54:23;;;;;;;4.07;2.50;;;;;;;;;;2088194;28;20253;-56
2022/04/09 05:55:26;;;;;;;6.30;3.43;;;;;;;;;;2089110;28;20175;-58
2022/04/09 05:56:28;;;;;;;9.83;2.70;;;;;;;;;;2073524;28;20177;-56
2022/04/09 05:57:29;;;;;;;7.43;2.87;;;;;;;;;;2071498;28;20180;-60
2022/04/09 05:58:31;;;;;;;3.67;2.53;;;;;;;;;;2065164;28;20173;-58
2022/04/09 05:59:32;;;;;;;4.57;2.77;;;;;;;;;;2079316;28;20256;-56
2022/04/09 06:00:34;;;;;;;7.20;3.50;;;;;;;;;;2080903;28;20171;-58
2022/04/09 06:01:46;;;;;;;6.57;3.03;;;;;;;;;;2070702;28;20313;-56
2022/04/09 06:02:47;;;;;;;6.33;2.70;;;;;;;;;;2068032;28;20174;-54
2022/04/09 06:04:01;;;;;;;4.80;2.60;;;;;;;;;;2081442;28;20253;-52
2022/04/09 06:05:01;;;;;;;7.27;3.07;;;;;;;;;;2089204;28;20184;-57
2022/04/09 06:06:02;;;;;;;6.63;3.27;;;;;;;;;;2076808;28;20266;-54
2022/04/09 06:07:26;;;;;;;6.13;3.20;;;;;;;;;;2076465;28;20675;-57
2022/04/09 06:08:38;;;;;;;5.20;2.73;;;;;;;;;;2080268;28;20668;-57
2022/04/09 06:09:50;;;;;;;2.83;2.63;;;;;;;;;;2080449;28;20691;-56
2022/04/09 06:10:52;;;;;;;4.97;2.40;;;;;;;;;;2079669;28;20613;-55
2022/04/09 06:11:52;;;;;;;5.10;2.47;;;;;;;;;;2073818;28;20223;-56